Accueil
METAR-TAF:

METAR-TAF

Aéroports :

Farnborough, Angleterre

latitude: 51-17N, longitude: 000-46W, altitude: 65 m

Observation

Le bulletin a été fait il y a 24 minutes, à 15:20 UTC
Vent 4 kt de sud-est, variant entre est et sud
Température 20°C
Humidité 68%
Pression 1018 hPa
Visibilité 10 km ou plus
Quelques nuages à une hauteur de 2800 ft
faibles averses de pluie

METAR: EGLF 211520Z 14004KT 100V170 9999 -SHRA FEW028 20/14 Q1018

Heure: 16:44 (15:44 UTC)

Prévision

Le bulletin a été fait il y a 1 heure et 40 minutes, à 14:04 UTC
Prévision valable du 21 à 15 UTC au 21 à 19 UTC
Vent 8 kt de sud/sud-est
Visibilité 10 km ou plus
Quelques nuages à une hauteur de 4000 ft
Probabilité 30% :
Temporairement
du 21 à 15 UTC au 21 à 19 UTC
Visibilité: 8000 m
averses de pluie

TAF: EGLF 211404Z 2115/2119 15008KT 9999 FEW040 PROB30 TEMPO 2115/2119 8000 SHRA

Observations et prévisions météorologiques de plus de 4000 aéroports (messages METAR et TAF).

Les stations disponibles sont représentées par des disques jaunes et rouges sur la carte.

Passer la souris dessus pour voir le nom de la station.

Cliquer dessus pour voir les observations et prévisions météorologiques.

Pour changer de carte: cliquez sur les boutons verts avec une croix noire pour zoomer, sur le bouton vert avec un tiret pour effectuer un zoom arrière, ou sur les flèches vertes pour les cartes adjacentes.


METAR-TAF: